Head of Island, Louisiana
Current Conditions -  °F | °C
As of 10:55 PM on Friday 31 Oct 2014 (Local Time) from KHDC Reporting Station
Clear Clear  
Wind Chill: 14°   Ceiling: Unl
Heat Index: 14°   Visibility: 10mi
Dew Point:   Wind: 10mph
Humidity: 59%   Direction: 360°N
Pressure: 30.23"   Gusts: NA
Location:  30.3666°N, 90.584°W
Report Text: KHDC 010355Z AUTO 36009KT 10SM CLR 14/06 A3023 RMK AO2
Loading
Personal Weather Stations






























Interactive Weather Map
Tropical Storm Tracking
New forecast layout! Learn more

10-Day Weather Forecast

Advertisements
Track Severe Weather on mobile